sensor_id;sensor_type;location;lat;lon;timestamp;P1;durP1;ratioP1;P2;durP2;ratioP2
56927;SDS011;60850;52.502;13.426;2023-01-25T00:02:15;23.35;;;10.65;;
56927;SDS011;60850;52.502;13.426;2023-01-25T00:04:42;28.70;;;11.52;;
56927;SDS011;60850;52.502;13.426;2023-01-25T00:07:09;24.15;;;11.07;;
56927;SDS011;60850;52.502;13.426;2023-01-25T00:09:35;22.05;;;10.55;;
56927;SDS011;60850;52.502;13.426;2023-01-25T00:12:04;23.10;;;10.13;;
56927;SDS011;60850;52.502;13.426;2023-01-25T00:14:31;22.83;;;10.50;;
56927;SDS011;60850;52.502;13.426;2023-01-25T00:16:58;25.35;;;10.32;;
56927;SDS011;60850;52.502;13.426;2023-01-25T00:19:25;22.92;;;10.65;;
56927;SDS011;60850;52.502;13.426;2023-01-25T00:21:52;22.90;;;10.70;;
56927;SDS011;60850;52.502;13.426;2023-01-25T00:24:18;20.98;;;9.75;;
56927;SDS011;60850;52.502;13.426;2023-01-25T00:26:47;22.25;;;10.80;;
56927;SDS011;60850;52.502;13.426;2023-01-25T00:29:15;18.90;;;10.13;;
56927;SDS011;60850;52.502;13.426;2023-01-25T00:34:48;22.88;;;10.88;;
56927;SDS011;60850;52.502;13.426;2023-01-25T00:37:22;17.98;;;9.25;;
56927;SDS011;60850;52.502;13.426;2023-01-25T00:39:50;22.83;;;10.48;;
56927;SDS011;60850;52.502;13.426;2023-01-25T00:42:18;23.77;;;10.13;;
56927;SDS011;60850;52.502;13.426;2023-01-25T00:44:46;21.20;;;9.60;;
56927;SDS011;60850;52.502;13.426;2023-01-25T00:47:14;20.50;;;9.48;;
56927;SDS011;60850;52.502;13.426;2023-01-25T00:49:42;21.30;;;10.23;;
56927;SDS011;60850;52.502;13.426;2023-01-25T00:52:10;19.13;;;10.02;;
56927;SDS011;60850;52.502;13.426;2023-01-25T00:54:38;19.67;;;9.35;;
56927;SDS011;60850;52.502;13.426;2023-01-25T00:57:05;20.60;;;9.73;;
56927;SDS011;60850;52.502;13.426;2023-01-25T00:59:33;20.95;;;9.80;;
56927;SDS011;60850;52.502;13.426;2023-01-25T01:02:02;21.23;;;11.05;;
56927;SDS011;60850;52.502;13.426;2023-01-25T01:04:29;22.08;;;11.55;;
56927;SDS011;60850;52.502;13.426;2023-01-25T01:06:57;22.63;;;11.95;;
56927;SDS011;60850;52.502;13.426;2023-01-25T01:09:23;20.48;;;11.52;;
56927;SDS011;60850;52.502;13.426;2023-01-25T01:11:51;19.98;;;9.90;;
56927;SDS011;60850;52.502;13.426;2023-01-25T01:14:18;24.70;;;10.73;;
56927;SDS011;60850;52.502;13.426;2023-01-25T01:16:45;20.02;;;10.63;;
56927;SDS011;60850;52.502;13.426;2023-01-25T01:19:14;44.45;;;18.98;;
56927;SDS011;60850;52.502;13.426;2023-01-25T01:21:41;28.02;;;13.35;;
56927;SDS011;60850;52.502;13.426;2023-01-25T01:24:09;27.30;;;12.50;;
56927;SDS011;60850;52.502;13.426;2023-01-25T01:26:36;25.50;;;11.40;;
56927;SDS011;60850;52.502;13.426;2023-01-25T01:29:03;22.20;;;11.27;;
56927;SDS011;60850;52.502;13.426;2023-01-25T01:31:31;27.10;;;12.63;;
56927;SDS011;60850;52.502;13.426;2023-01-25T01:33:58;23.83;;;11.32;;
56927;SDS011;60850;52.502;13.426;2023-01-25T01:36:28;25.00;;;10.95;;
56927;SDS011;60850;52.502;13.426;2023-01-25T01:38:56;22.05;;;10.10;;
56927;SDS011;60850;52.502;13.426;2023-01-25T01:41:24;23.02;;;11.10;;
56927;SDS011;60850;52.502;13.426;2023-01-25T01:43:51;22.20;;;9.80;;
56927;SDS011;60850;52.502;13.426;2023-01-25T01:46:20;23.85;;;10.23;;
56927;SDS011;60850;52.502;13.426;2023-01-25T01:48:51;20.05;;;9.18;;
56927;SDS011;60850;52.502;13.426;2023-01-25T01:51:22;22.77;;;10.23;;
56927;SDS011;60850;52.502;13.426;2023-01-25T01:53:56;20.60;;;9.52;;
56927;SDS011;60850;52.502;13.426;2023-01-25T01:56:30;20.88;;;11.10;;
56927;SDS011;60850;52.502;13.426;2023-01-25T01:59:01;22.92;;;9.90;;
56927;SDS011;60850;52.502;13.426;2023-01-25T02:01:31;22.33;;;9.50;;
56927;SDS011;60850;52.502;13.426;2023-01-25T02:03:59;21.05;;;9.60;;
56927;SDS011;60850;52.502;13.426;2023-01-25T02:06:30;19.67;;;9.23;;
56927;SDS011;60850;52.502;13.426;2023-01-25T02:09:03;22.90;;;9.93;;
56927;SDS011;60850;52.502;13.426;2023-01-25T02:11:30;18.55;;;9.73;;
56927;SDS011;60850;52.502;13.426;2023-01-25T02:13:58;22.83;;;10.18;;
56927;SDS011;60850;52.502;13.426;2023-01-25T02:16:27;25.95;;;10.60;;
56927;SDS011;60850;52.502;13.426;2023-01-25T02:18:55;24.38;;;10.65;;
56927;SDS011;60850;52.502;13.426;2023-01-25T02:21:26;21.10;;;9.68;;
56927;SDS011;60850;52.502;13.426;2023-01-25T02:24:00;18.55;;;10.10;;
56927;SDS011;60850;52.502;13.426;2023-01-25T02:26:34;24.30;;;11.10;;
56927;SDS011;60850;52.502;13.426;2023-01-25T02:29:02;20.17;;;10.27;;
56927;SDS011;60850;52.502;13.426;2023-01-25T02:31:31;21.13;;;9.75;;
56927;SDS011;60850;52.502;13.426;2023-01-25T02:33:58;23.02;;;10.50;;
56927;SDS011;60850;52.502;13.426;2023-01-25T02:36:26;19.20;;;9.40;;
56927;SDS011;60850;52.502;13.426;2023-01-25T02:38:55;25.42;;;10.70;;
56927;SDS011;60850;52.502;13.426;2023-01-25T02:41:26;24.42;;;10.93;;
56927;SDS011;60850;52.502;13.426;2023-01-25T02:43:59;19.15;;;9.73;;
56927;SDS011;60850;52.502;13.426;2023-01-25T02:46:28;21.83;;;9.80;;
56927;SDS011;60850;52.502;13.426;2023-01-25T02:48:57;19.25;;;9.13;;
56927;SDS011;60850;52.502;13.426;2023-01-25T02:51:25;24.65;;;10.10;;
56927;SDS011;60850;52.502;13.426;2023-01-25T02:53:53;21.77;;;10.65;;
56927;SDS011;60850;52.502;13.426;2023-01-25T02:56:21;21.55;;;10.55;;
56927;SDS011;60850;52.502;13.426;2023-01-25T02:58:48;21.55;;;9.95;;
56927;SDS011;60850;52.502;13.426;2023-01-25T03:01:16;20.35;;;9.57;;
56927;SDS011;60850;52.502;13.426;2023-01-25T03:03:43;21.30;;;10.48;;
56927;SDS011;60850;52.502;13.426;2023-01-25T03:06:10;21.60;;;9.35;;
56927;SDS011;60850;52.502;13.426;2023-01-25T03:08:37;24.15;;;10.10;;
56927;SDS011;60850;52.502;13.426;2023-01-25T03:11:05;23.50;;;10.27;;
56927;SDS011;60850;52.502;13.426;2023-01-25T03:13:32;19.98;;;9.90;;
56927;SDS011;60850;52.502;13.426;2023-01-25T03:16:01;20.50;;;9.48;;
56927;SDS011;60850;52.502;13.426;2023-01-25T03:18:31;25.98;;;10.95;;
56927;SDS011;60850;52.502;13.426;2023-01-25T03:21:03;22.60;;;9.88;;
56927;SDS011;60850;52.502;13.426;2023-01-25T03:23:31;21.50;;;9.80;;
56927;SDS011;60850;52.502;13.426;2023-01-25T03:26:07;22.42;;;9.65;;
56927;SDS011;60850;52.502;13.426;2023-01-25T03:28:35;29.48;;;11.07;;
56927;SDS011;60850;52.502;13.426;2023-01-25T03:31:03;21.38;;;10.50;;
56927;SDS011;60850;52.502;13.426;2023-01-25T03:33:31;20.50;;;10.15;;
56927;SDS011;60850;52.502;13.426;2023-01-25T03:35:58;24.05;;;10.25;;
56927;SDS011;60850;52.502;13.426;2023-01-25T03:38:25;23.90;;;10.35;;
56927;SDS011;60850;52.502;13.426;2023-01-25T03:40:53;22.25;;;10.00;;
56927;SDS011;60850;52.502;13.426;2023-01-25T03:43:20;28.25;;;11.90;;
56927;SDS011;60850;52.502;13.426;2023-01-25T03:45:50;21.48;;;10.60;;
56927;SDS011;60850;52.502;13.426;2023-01-25T03:48:18;22.48;;;10.18;;
56927;SDS011;60850;52.502;13.426;2023-01-25T03:50:49;22.70;;;10.75;;
56927;SDS011;60850;52.502;13.426;2023-01-25T03:53:16;21.98;;;10.57;;
56927;SDS011;60850;52.502;13.426;2023-01-25T03:55:52;23.45;;;10.88;;
56927;SDS011;60850;52.502;13.426;2023-01-25T03:58:20;19.50;;;10.32;;
56927;SDS011;60850;52.502;13.426;2023-01-25T04:00:47;26.13;;;11.50;;
56927;SDS011;60850;52.502;13.426;2023-01-25T04:03:14;24.98;;;11.32;;
56927;SDS011;60850;52.502;13.426;2023-01-25T04:05:42;23.77;;;10.60;;
56927;SDS011;60850;52.502;13.426;2023-01-25T04:08:10;22.83;;;10.65;;
56927;SDS011;60850;52.502;13.426;2023-01-25T04:10:37;22.02;;;10.82;;
56927;SDS011;60850;52.502;13.426;2023-01-25T04:13:03;25.23;;;11.20;;
56927;SDS011;60850;52.502;13.426;2023-01-25T04:15:33;25.52;;;10.63;;
56927;SDS011;60850;52.502;13.426;2023-01-25T04:18:00;24.98;;;10.98;;
56927;SDS011;60850;52.502;13.426;2023-01-25T04:20:27;23.88;;;10.65;;
56927;SDS011;60850;52.502;13.426;2023-01-25T04:22:54;23.58;;;11.70;;
56927;SDS011;60850;52.502;13.426;2023-01-25T04:25:22;20.50;;;10.40;;
56927;SDS011;60850;52.502;13.426;2023-01-25T04:27:49;20.67;;;10.18;;
56927;SDS011;60850;52.502;13.426;2023-01-25T04:30:16;22.48;;;9.63;;
56927;SDS011;60850;52.502;13.426;2023-01-25T04:32:44;18.98;;;8.02;;
56927;SDS011;60850;52.502;13.426;2023-01-25T04:35:11;19.08;;;8.50;;
56927;SDS011;60850;52.502;13.426;2023-01-25T04:37:38;15.80;;;8.15;;
56927;SDS011;60850;52.502;13.426;2023-01-25T04:40:05;18.15;;;8.30;;
56927;SDS011;60850;52.502;13.426;2023-01-25T04:42:34;17.88;;;8.23;;
56927;SDS011;60850;52.502;13.426;2023-01-25T04:45:01;17.38;;;8.85;;
56927;SDS011;60850;52.502;13.426;2023-01-25T04:47:28;13.55;;;6.43;;
56927;SDS011;60850;52.502;13.426;2023-01-25T04:49:56;13.05;;;6.10;;
56927;SDS011;60850;52.502;13.426;2023-01-25T04:52:22;11.82;;;6.47;;
56927;SDS011;60850;52.502;13.426;2023-01-25T04:54:49;14.05;;;6.53;;
56927;SDS011;60850;52.502;13.426;2023-01-25T04:57:16;14.93;;;6.43;;
56927;SDS011;60850;52.502;13.426;2023-01-25T04:59:44;17.00;;;7.57;;
56927;SDS011;60850;52.502;13.426;2023-01-25T05:02:11;14.73;;;7.28;;
56927;SDS011;60850;52.502;13.426;2023-01-25T05:04:38;17.45;;;7.25;;
56927;SDS011;60850;52.502;13.426;2023-01-25T05:07:05;16.33;;;8.05;;
56927;SDS011;60850;52.502;13.426;2023-01-25T05:09:32;16.13;;;8.13;;
56927;SDS011;60850;52.502;13.426;2023-01-25T05:11:58;15.95;;;7.63;;
56927;SDS011;60850;52.502;13.426;2023-01-25T05:14:25;13.05;;;6.63;;
56927;SDS011;60850;52.502;13.426;2023-01-25T05:16:54;14.30;;;6.35;;
56927;SDS011;60850;52.502;13.426;2023-01-25T05:19:21;14.55;;;7.50;;
56927;SDS011;60850;52.502;13.426;2023-01-25T05:21:47;15.48;;;7.68;;
56927;SDS011;60850;52.502;13.426;2023-01-25T05:24:23;17.23;;;8.38;;
56927;SDS011;60850;52.502;13.426;2023-01-25T05:26:50;17.08;;;8.20;;
56927;SDS011;60850;52.502;13.426;2023-01-25T05:29:25;17.48;;;8.43;;
56927;SDS011;60850;52.502;13.426;2023-01-25T05:31:53;18.15;;;8.65;;
56927;SDS011;60850;52.502;13.426;2023-01-25T05:34:20;15.60;;;7.82;;
56927;SDS011;60850;52.502;13.426;2023-01-25T05:36:47;16.48;;;8.25;;
56927;SDS011;60850;52.502;13.426;2023-01-25T05:39:14;17.63;;;8.10;;
56927;SDS011;60850;52.502;13.426;2023-01-25T05:41:41;17.70;;;7.72;;
56927;SDS011;60850;52.502;13.426;2023-01-25T05:44:08;14.95;;;7.25;;
56927;SDS011;60850;52.502;13.426;2023-01-25T05:46:35;17.08;;;7.85;;
56927;SDS011;60850;52.502;13.426;2023-01-25T05:49:03;16.20;;;7.45;;
56927;SDS011;60850;52.502;13.426;2023-01-25T05:51:31;14.88;;;7.05;;
56927;SDS011;60850;52.502;13.426;2023-01-25T05:53:58;13.65;;;6.88;;
56927;SDS011;60850;52.502;13.426;2023-01-25T05:56:24;13.60;;;6.45;;
56927;SDS011;60850;52.502;13.426;2023-01-25T05:58:52;16.00;;;7.40;;
56927;SDS011;60850;52.502;13.426;2023-01-25T06:01:19;12.18;;;6.30;;
56927;SDS011;60850;52.502;13.426;2023-01-25T06:03:46;16.58;;;7.72;;
56927;SDS011;60850;52.502;13.426;2023-01-25T06:06:15;16.45;;;6.93;;
56927;SDS011;60850;52.502;13.426;2023-01-25T06:08:42;16.50;;;7.65;;
56927;SDS011;60850;52.502;13.426;2023-01-25T06:11:10;16.90;;;6.60;;
56927;SDS011;60850;52.502;13.426;2023-01-25T06:13:39;12.00;;;6.47;;
56927;SDS011;60850;52.502;13.426;2023-01-25T06:16:05;17.58;;;6.57;;
56927;SDS011;60850;52.502;13.426;2023-01-25T06:18:33;12.45;;;6.22;;
56927;SDS011;60850;52.502;13.426;2023-01-25T06:21:01;12.90;;;7.00;;
56927;SDS011;60850;52.502;13.426;2023-01-25T06:23:31;15.88;;;6.90;;
56927;SDS011;60850;52.502;13.426;2023-01-25T06:25:58;14.25;;;7.15;;
56927;SDS011;60850;52.502;13.426;2023-01-25T06:28:25;13.27;;;6.75;;
56927;SDS011;60850;52.502;13.426;2023-01-25T06:30:52;13.60;;;6.93;;
56927;SDS011;60850;52.502;13.426;2023-01-25T06:33:19;14.65;;;7.35;;
56927;SDS011;60850;52.502;13.426;2023-01-25T06:35:45;10.20;;;5.72;;
56927;SDS011;60850;52.502;13.426;2023-01-25T06:38:12;14.30;;;7.35;;
56927;SDS011;60850;52.502;13.426;2023-01-25T06:40:40;17.27;;;6.97;;
56927;SDS011;60850;52.502;13.426;2023-01-25T06:43:08;15.45;;;7.30;;
56927;SDS011;60850;52.502;13.426;2023-01-25T06:45:35;16.42;;;7.35;;
56927;SDS011;60850;52.502;13.426;2023-01-25T06:48:03;17.15;;;8.10;;
56927;SDS011;60850;52.502;13.426;2023-01-25T06:50:30;19.08;;;8.13;;
56927;SDS011;60850;52.502;13.426;2023-01-25T06:52:57;15.30;;;7.22;;
56927;SDS011;60850;52.502;13.426;2023-01-25T06:55:24;17.92;;;8.35;;
56927;SDS011;60850;52.502;13.426;2023-01-25T06:57:52;15.82;;;7.25;;
56927;SDS011;60850;52.502;13.426;2023-01-25T07:00:19;14.63;;;7.43;;
56927;SDS011;60850;52.502;13.426;2023-01-25T07:02:46;15.95;;;7.55;;
56927;SDS011;60850;52.502;13.426;2023-01-25T07:05:13;19.13;;;8.18;;
56927;SDS011;60850;52.502;13.426;2023-01-25T07:07:43;16.75;;;7.85;;
56927;SDS011;60850;52.502;13.426;2023-01-25T07:10:10;17.48;;;7.97;;
56927;SDS011;60850;52.502;13.426;2023-01-25T07:12:37;17.58;;;8.80;;
56927;SDS011;60850;52.502;13.426;2023-01-25T07:15:06;22.70;;;9.50;;
56927;SDS011;60850;52.502;13.426;2023-01-25T07:17:33;21.05;;;8.52;;
56927;SDS011;60850;52.502;13.426;2023-01-25T07:20:00;19.92;;;8.93;;
56927;SDS011;60850;52.502;13.426;2023-01-25T07:22:27;19.30;;;9.15;;
56927;SDS011;60850;52.502;13.426;2023-01-25T07:24:54;19.38;;;9.25;;
56927;SDS011;60850;52.502;13.426;2023-01-25T07:27:26;25.75;;;10.65;;
56927;SDS011;60850;52.502;13.426;2023-01-25T07:29:53;25.23;;;10.85;;
56927;SDS011;60850;52.502;13.426;2023-01-25T07:32:21;21.00;;;9.52;;
56927;SDS011;60850;52.502;13.426;2023-01-25T07:34:48;22.23;;;10.85;;
56927;SDS011;60850;52.502;13.426;2023-01-25T07:37:15;25.52;;;11.38;;
56927;SDS011;60850;52.502;13.426;2023-01-25T07:39:42;26.13;;;11.15;;
56927;SDS011;60850;52.502;13.426;2023-01-25T07:42:12;26.38;;;10.68;;
56927;SDS011;60850;52.502;13.426;2023-01-25T07:44:39;27.23;;;11.15;;
56927;SDS011;60850;52.502;13.426;2023-01-25T07:47:06;24.15;;;11.00;;
56927;SDS011;60850;52.502;13.426;2023-01-25T07:49:34;27.90;;;11.57;;
56927;SDS011;60850;52.502;13.426;2023-01-25T07:52:01;29.40;;;11.32;;
56927;SDS011;60850;52.502;13.426;2023-01-25T07:54:28;30.10;;;12.15;;
56927;SDS011;60850;52.502;13.426;2023-01-25T07:56:55;33.15;;;12.93;;
56927;SDS011;60850;52.502;13.426;2023-01-25T07:59:23;33.85;;;13.63;;
56927;SDS011;60850;52.502;13.426;2023-01-25T08:01:50;30.98;;;12.73;;
56927;SDS011;60850;52.502;13.426;2023-01-25T08:04:17;31.95;;;13.32;;
56927;SDS011;60850;52.502;13.426;2023-01-25T08:06:45;36.70;;;13.88;;
56927;SDS011;60850;52.502;13.426;2023-01-25T08:09:13;34.47;;;13.77;;
56927;SDS011;60850;52.502;13.426;2023-01-25T08:11:44;35.85;;;14.57;;
56927;SDS011;60850;52.502;13.426;2023-01-25T08:14:11;34.92;;;13.25;;
56927;SDS011;60850;52.502;13.426;2023-01-25T08:16:38;30.48;;;13.90;;
56927;SDS011;60850;52.502;13.426;2023-01-25T08:19:05;28.58;;;11.02;;
56927;SDS011;60850;52.502;13.426;2023-01-25T08:21:32;33.20;;;12.50;;
56927;SDS011;60850;52.502;13.426;2023-01-25T08:24:02;34.05;;;13.18;;
56927;SDS011;60850;52.502;13.426;2023-01-25T08:26:30;33.08;;;12.07;;
56927;SDS011;60850;52.502;13.426;2023-01-25T08:28:57;30.98;;;12.10;;
56927;SDS011;60850;52.502;13.426;2023-01-25T08:31:25;31.98;;;12.98;;
56927;SDS011;60850;52.502;13.426;2023-01-25T08:33:53;29.40;;;11.88;;
56927;SDS011;60850;52.502;13.426;2023-01-25T08:36:20;28.50;;;11.15;;
56927;SDS011;60850;52.502;13.426;2023-01-25T08:38:51;29.10;;;11.20;;
56927;SDS011;60850;52.502;13.426;2023-01-25T08:41:21;26.60;;;11.77;;
56927;SDS011;60850;52.502;13.426;2023-01-25T08:43:49;22.08;;;10.05;;
56927;SDS011;60850;52.502;13.426;2023-01-25T08:46:18;24.30;;;10.07;;
56927;SDS011;60850;52.502;13.426;2023-01-25T08:48:45;28.40;;;11.07;;
56927;SDS011;60850;52.502;13.426;2023-01-25T08:51:12;26.15;;;10.85;;
56927;SDS011;60850;52.502;13.426;2023-01-25T08:53:40;25.83;;;10.75;;
56927;SDS011;60850;52.502;13.426;2023-01-25T08:56:08;24.45;;;11.00;;
56927;SDS011;60850;52.502;13.426;2023-01-25T08:58:38;25.38;;;11.90;;
56927;SDS011;60850;52.502;13.426;2023-01-25T09:01:08;28.33;;;11.85;;
56927;SDS011;60850;52.502;13.426;2023-01-25T09:03:36;27.65;;;11.32;;
56927;SDS011;60850;52.502;13.426;2023-01-25T09:06:04;28.67;;;11.88;;
56927;SDS011;60850;52.502;13.426;2023-01-25T09:08:31;26.17;;;10.77;;
56927;SDS011;60850;52.502;13.426;2023-01-25T09:10:59;23.00;;;9.60;;
56927;SDS011;60850;52.502;13.426;2023-01-25T09:13:27;23.45;;;10.18;;
56927;SDS011;60850;52.502;13.426;2023-01-25T09:15:58;23.17;;;10.23;;
56927;SDS011;60850;52.502;13.426;2023-01-25T09:18:26;25.70;;;12.05;;
56927;SDS011;60850;52.502;13.426;2023-01-25T09:20:53;26.05;;;11.45;;
56927;SDS011;60850;52.502;13.426;2023-01-25T09:23:20;29.88;;;11.50;;
56927;SDS011;60850;52.502;13.426;2023-01-25T09:25:48;26.23;;;10.65;;
56927;SDS011;60850;52.502;13.426;2023-01-25T09:28:15;22.13;;;10.63;;
56927;SDS011;60850;52.502;13.426;2023-01-25T09:30:42;22.63;;;9.88;;
56927;SDS011;60850;52.502;13.426;2023-01-25T09:33:10;25.65;;;10.95;;
56927;SDS011;60850;52.502;13.426;2023-01-25T09:35:45;26.50;;;11.10;;
56927;SDS011;60850;52.502;13.426;2023-01-25T09:38:13;27.63;;;10.30;;
56927;SDS011;60850;52.502;13.426;2023-01-25T09:40:40;22.10;;;9.60;;
56927;SDS011;60850;52.502;13.426;2023-01-25T09:43:18;24.17;;;9.73;;
56927;SDS011;60850;52.502;13.426;2023-01-25T09:45:57;22.48;;;9.48;;
56927;SDS011;60850;52.502;13.426;2023-01-25T09:48:28;23.70;;;10.80;;
56927;SDS011;60850;52.502;13.426;2023-01-25T09:51:07;23.60;;;10.27;;
56927;SDS011;60850;52.502;13.426;2023-01-25T09:53:46;31.92;;;11.50;;
56927;SDS011;60850;52.502;13.426;2023-01-25T09:56:16;26.13;;;10.10;;
56927;SDS011;60850;52.502;13.426;2023-01-25T09:58:49;25.38;;;10.40;;
56927;SDS011;60850;52.502;13.426;2023-01-25T10:01:26;25.45;;;10.38;;
56927;SDS011;60850;52.502;13.426;2023-01-25T10:04:00;28.73;;;10.45;;
56927;SDS011;60850;52.502;13.426;2023-01-25T10:06:38;24.38;;;9.90;;
56927;SDS011;60850;52.502;13.426;2023-01-25T10:09:17;24.75;;;10.95;;
56927;SDS011;60850;52.502;13.426;2023-01-25T10:11:50;23.73;;;10.27;;
56927;SDS011;60850;52.502;13.426;2023-01-25T10:14:17;24.10;;;10.35;;
56927;SDS011;60850;52.502;13.426;2023-01-25T10:16:50;30.30;;;11.52;;
56927;SDS011;60850;52.502;13.426;2023-01-25T10:19:27;25.50;;;10.52;;
56927;SDS011;60850;52.502;13.426;2023-01-25T10:22:03;28.95;;;11.43;;
56927;SDS011;60850;52.502;13.426;2023-01-25T10:24:52;20.52;;;9.20;;
56927;SDS011;60850;52.502;13.426;2023-01-25T10:27:39;24.63;;;10.70;;
56927;SDS011;60850;52.502;13.426;2023-01-25T10:30:22;22.52;;;10.60;;
56927;SDS011;60850;52.502;13.426;2023-01-25T10:32:54;25.80;;;9.95;;
56927;SDS011;60850;52.502;13.426;2023-01-25T10:35:25;27.58;;;10.05;;
56927;SDS011;60850;52.502;13.426;2023-01-25T10:37:57;22.83;;;9.90;;
56927;SDS011;60850;52.502;13.426;2023-01-25T10:40:29;23.08;;;9.10;;
56927;SDS011;60850;52.502;13.426;2023-01-25T10:43:01;21.88;;;8.75;;
56927;SDS011;60850;52.502;13.426;2023-01-25T10:45:32;25.13;;;9.88;;
56927;SDS011;60850;52.502;13.426;2023-01-25T10:48:01;24.77;;;9.18;;
56927;SDS011;60850;52.502;13.426;2023-01-25T10:50:44;26.48;;;10.25;;
56927;SDS011;60850;52.502;13.426;2023-01-25T10:53:23;26.02;;;9.52;;
56927;SDS011;60850;52.502;13.426;2023-01-25T10:56:14;23.73;;;9.98;;
56927;SDS011;60850;52.502;13.426;2023-01-25T10:59:04;26.02;;;10.27;;
56927;SDS011;60850;52.502;13.426;2023-01-25T11:01:33;25.98;;;10.05;;
56927;SDS011;60850;52.502;13.426;2023-01-25T11:04:02;21.55;;;9.90;;
56927;SDS011;60850;52.502;13.426;2023-01-25T11:06:48;24.80;;;10.95;;
56927;SDS011;60850;52.502;13.426;2023-01-25T11:09:33;29.80;;;11.80;;
56927;SDS011;60850;52.502;13.426;2023-01-25T11:12:02;25.27;;;10.52;;
56927;SDS011;60850;52.502;13.426;2023-01-25T11:14:34;28.65;;;11.38;;
56927;SDS011;60850;52.502;13.426;2023-01-25T11:17:02;30.42;;;11.40;;
56927;SDS011;60850;52.502;13.426;2023-01-25T11:19:31;29.98;;;12.68;;
56927;SDS011;60850;52.502;13.426;2023-01-25T11:22:03;27.60;;;12.02;;
56927;SDS011;60850;52.502;13.426;2023-01-25T11:24:32;29.02;;;12.23;;
56927;SDS011;60850;52.502;13.426;2023-01-25T11:27:14;34.85;;;13.48;;
56927;SDS011;60850;52.502;13.426;2023-01-25T11:29:44;36.13;;;13.27;;
56927;SDS011;60850;52.502;13.426;2023-01-25T11:32:14;32.10;;;13.15;;
56927;SDS011;60850;52.502;13.426;2023-01-25T11:34:46;31.58;;;13.77;;
56927;SDS011;60850;52.502;13.426;2023-01-25T11:37:27;29.67;;;12.43;;
56927;SDS011;60850;52.502;13.426;2023-01-25T11:40:08;29.17;;;12.05;;
56927;SDS011;60850;52.502;13.426;2023-01-25T11:42:46;27.42;;;11.98;;
56927;SDS011;60850;52.502;13.426;2023-01-25T11:45:31;35.92;;;13.77;;
56927;SDS011;60850;52.502;13.426;2023-01-25T11:48:14;32.60;;;12.68;;
56927;SDS011;60850;52.502;13.426;2023-01-25T11:50:55;31.08;;;14.25;;
56927;SDS011;60850;52.502;13.426;2023-01-25T11:53:43;29.90;;;12.75;;
56927;SDS011;60850;52.502;13.426;2023-01-25T11:56:22;37.83;;;13.45;;
56927;SDS011;60850;52.502;13.426;2023-01-25T11:59:07;37.80;;;14.07;;
56927;SDS011;60850;52.502;13.426;2023-01-25T12:01:56;38.95;;;15.27;;
56927;SDS011;60850;52.502;13.426;2023-01-25T12:07:31;37.38;;;14.98;;
56927;SDS011;60850;52.502;13.426;2023-01-25T12:10:16;34.67;;;12.98;;
56927;SDS011;60850;52.502;13.426;2023-01-25T12:12:53;36.63;;;14.65;;
56927;SDS011;60850;52.502;13.426;2023-01-25T12:15:31;34.40;;;14.45;;
56927;SDS011;60850;52.502;13.426;2023-01-25T12:18:13;31.23;;;13.13;;
56927;SDS011;60850;52.502;13.426;2023-01-25T12:21:00;40.65;;;14.80;;
56927;SDS011;60850;52.502;13.426;2023-01-25T12:23:34;35.65;;;14.27;;
56927;SDS011;60850;52.502;13.426;2023-01-25T12:26:11;36.38;;;14.02;;
56927;SDS011;60850;52.502;13.426;2023-01-25T12:28:53;33.53;;;14.10;;
56927;SDS011;60850;52.502;13.426;2023-01-25T12:31:29;35.75;;;12.95;;
56927;SDS011;60850;52.502;13.426;2023-01-25T12:34:07;29.05;;;11.90;;
56927;SDS011;60850;52.502;13.426;2023-01-25T12:36:42;33.08;;;12.23;;
56927;SDS011;60850;52.502;13.426;2023-01-25T12:39:11;34.65;;;13.05;;
56927;SDS011;60850;52.502;13.426;2023-01-25T12:41:42;26.52;;;11.52;;
56927;SDS011;60850;52.502;13.426;2023-01-25T12:44:13;26.35;;;10.82;;
56927;SDS011;60850;52.502;13.426;2023-01-25T12:46:47;31.08;;;12.20;;
56927;SDS011;60850;52.502;13.426;2023-01-25T12:49:28;29.53;;;12.17;;
56927;SDS011;60850;52.502;13.426;2023-01-25T12:52:00;32.00;;;11.20;;
56927;SDS011;60850;52.502;13.426;2023-01-25T12:54:31;30.50;;;11.68;;
56927;SDS011;60850;52.502;13.426;2023-01-25T12:57:08;30.67;;;12.82;;
56927;SDS011;60850;52.502;13.426;2023-01-25T12:59:44;29.55;;;12.57;;
56927;SDS011;60850;52.502;13.426;2023-01-25T13:02:21;30.95;;;12.93;;
56927;SDS011;60850;52.502;13.426;2023-01-25T13:05:00;33.75;;;13.07;;
56927;SDS011;60850;52.502;13.426;2023-01-25T13:07:39;35.17;;;13.57;;
56927;SDS011;60850;52.502;13.426;2023-01-25T13:10:13;34.78;;;13.32;;
56927;SDS011;60850;52.502;13.426;2023-01-25T13:12:53;30.77;;;12.88;;
56927;SDS011;60850;52.502;13.426;2023-01-25T13:15:38;29.70;;;13.27;;
56927;SDS011;60850;52.502;13.426;2023-01-25T13:21:02;36.75;;;14.52;;
56927;SDS011;60850;52.502;13.426;2023-01-25T13:23:36;29.75;;;13.40;;
56927;SDS011;60850;52.502;13.426;2023-01-25T13:35:32;28.33;;;11.80;;
56927;SDS011;60850;52.502;13.426;2023-01-25T13:41:04;28.83;;;11.30;;
56927;SDS011;60850;52.502;13.426;2023-01-25T13:43:37;28.20;;;12.50;;
56927;SDS011;60850;52.502;13.426;2023-01-25T13:46:05;30.38;;;11.80;;
56927;SDS011;60850;52.502;13.426;2023-01-25T13:48:41;30.27;;;12.30;;
56927;SDS011;60850;52.502;13.426;2023-01-25T13:51:15;30.38;;;11.68;;
56927;SDS011;60850;52.502;13.426;2023-01-25T13:53:53;29.35;;;11.48;;
56927;SDS011;60850;52.502;13.426;2023-01-25T13:56:27;31.40;;;12.38;;
56927;SDS011;60850;52.502;13.426;2023-01-25T14:01:22;25.20;;;10.52;;
56927;SDS011;60850;52.502;13.426;2023-01-25T14:03:50;29.70;;;11.60;;
56927;SDS011;60850;52.502;13.426;2023-01-25T14:06:22;29.48;;;12.93;;
56927;SDS011;60850;52.502;13.426;2023-01-25T14:08:53;33.42;;;12.63;;
56927;SDS011;60850;52.502;13.426;2023-01-25T14:11:27;35.70;;;13.05;;
56927;SDS011;60850;52.502;13.426;2023-01-25T14:14:15;31.45;;;12.27;;
56927;SDS011;60850;52.502;13.426;2023-01-25T14:16:44;31.88;;;11.60;;
56927;SDS011;60850;52.502;13.426;2023-01-25T14:19:20;32.00;;;12.43;;
56927;SDS011;60850;52.502;13.426;2023-01-25T14:24:37;24.67;;;10.45;;
56927;SDS011;60850;52.502;13.426;2023-01-25T14:27:04;26.42;;;12.35;;
56927;SDS011;60850;52.502;13.426;2023-01-25T14:29:32;31.67;;;11.02;;
56927;SDS011;60850;52.502;13.426;2023-01-25T14:31:59;31.13;;;11.73;;
56927;SDS011;60850;52.502;13.426;2023-01-25T14:34:26;81.53;;;57.05;;
56927;SDS011;60850;52.502;13.426;2023-01-25T14:37:03;30.80;;;12.57;;
56927;SDS011;60850;52.502;13.426;2023-01-25T14:39:34;23.58;;;9.88;;
56927;SDS011;60850;52.502;13.426;2023-01-25T14:42:00;22.88;;;10.18;;
56927;SDS011;60850;52.502;13.426;2023-01-25T14:44:28;25.83;;;10.65;;
56927;SDS011;60850;52.502;13.426;2023-01-25T14:49:55;28.38;;;9.85;;
56927;SDS011;60850;52.502;13.426;2023-01-25T14:52:58;33.88;;;11.40;;
56927;SDS011;60850;52.502;13.426;2023-01-25T14:55:35;34.03;;;12.45;;
56927;SDS011;60850;52.502;13.426;2023-01-25T14:58:02;27.40;;;11.35;;
56927;SDS011;60850;52.502;13.426;2023-01-25T15:00:29;24.35;;;10.30;;
56927;SDS011;60850;52.502;13.426;2023-01-25T15:02:59;23.55;;;10.00;;